TimePST,TemperatureF,Dew PointF,Humidity,Sea Level PressureIn,VisibilityMPH,Wind Direction,Wind SpeedMPH,Gust SpeedMPH,PrecipitationIn,Events,Conditions,WindDirDegrees,DateUTC
12:53 AM,30.0,26.1,85,30.52,10.0,NNE,4.6,-,N/A,,Clear,20,2014-01-05 08:53:00
1:53 AM,28.9,25.0,85,30.53,10.0,North,4.6,-,N/A,,Clear,10,2014-01-05 09:53:00
2:53 AM,30.0,26.1,85,30.54,10.0,North,3.5,-,N/A,,Clear,10,2014-01-05 10:53:00
3:53 AM,28.9,25.0,85,30.53,10.0,Calm,Calm,-,N/A,,Clear,0,2014-01-05 11:53:00
4:53 AM,26.1,23.0,88,30.53,10.0,Calm,Calm,-,N/A,,Clear,0,2014-01-05 12:53:00
5:53 AM,28.0,25.0,88,30.54,10.0,North,4.6,-,N/A,,Clear,350,2014-01-05 13:53:00
6:53 AM,30.0,26.1,85,30.53,10.0,North,3.5,-,N/A,,Clear,350,2014-01-05 14:53:00
7:53 AM,27.0,24.1,89,30.53,10.0,Calm,Calm,-,N/A,,Clear,0,2014-01-05 15:53:00
8:53 AM,28.9,25.0,85,30.55,10.0,Calm,Calm,-,N/A,,Clear,0,2014-01-05 16:53:00
9:53 AM,35.1,27.0,72,30.56,10.0,North,6.9,-,N/A,,Clear,10,2014-01-05 17:53:00
10:53 AM,37.9,28.0,68,30.56,10.0,North,9.2,-,N/A,,Clear,360,2014-01-05 18:53:00
11:53 AM,41.0,28.0,60,30.53,10.0,North,9.2,17.3,N/A,,Clear,10,2014-01-05 19:53:00
12:53 PM,42.1,27.0,55,30.51,10.0,North,13.8,18.4,N/A,,Clear,10,2014-01-05 20:53:00
1:53 PM,43.0,28.0,56,30.50,10.0,North,5.8,-,N/A,,Clear,350,2014-01-05 21:53:00
2:53 PM,43.0,28.9,58,30.49,10.0,NNW,4.6,-,N/A,,Clear,330,2014-01-05 22:53:00
3:53 PM,39.0,28.9,67,30.49,10.0,NNW,4.6,-,N/A,,Clear,330,2014-01-05 23:53:00
4:53 PM,33.1,28.0,82,30.48,10.0,Calm,Calm,-,N/A,,Clear,0,2014-01-06 00:53:00
5:53 PM,30.9,28.0,89,30.46,10.0,Calm,Calm,-,N/A,,Clear,0,2014-01-06 01:53:00
6:53 PM,30.0,27.0,88,30.45,10.0,Calm,Calm,-,N/A,,Clear,0,2014-01-06 02:53:00
7:53 PM,33.1,28.9,85,30.45,10.0,Calm,Calm,-,N/A,,Clear,0,2014-01-06 03:53:00
8:53 PM,30.9,27.0,85,30.44,10.0,Calm,Calm,-,N/A,,Clear,0,2014-01-06 04:53:00
9:53 PM,30.9,27.0,85,30.43,10.0,North,3.5,-,N/A,,Clear,360,2014-01-06 05:53:00
10:53 PM,28.9,26.1,89,30.40,10.0,Calm,Calm,-,N/A,,Clear,0,2014-01-06 06:53:00
11:53 PM,30.0,26.1,85,30.38,10.0,Calm,Calm,-,N/A,,Clear,0,2014-01-06 07:53:00